Aérodrome :
LOGIN :

S'inscrire | Disclaimer

   EN    FR    IT 

 










Légende :    VFR   VFR Marginal   IFR   IFR Intensif   IFR Très Intensif
Visi : 
Plafond : 
>= 8 km
>= 3000ft
5 à 8 km
1000 à 3000 ft
1500m à 5 km
500 à 1000 ft
800 à 1500m
200 à 500 ft
< 800m
< 200 ft
Symboles :   Orages  Brouillard  Fortes neiges  Fortes précipitations  Vent > 20 kt
SIGMETs :   Divers  Orages  Givrage  Turbulence  Onde Orograph.  Cendres Volcan.







- Altitude de l'aérodrome : 245 ft
- Code IATA : BIQ
- Voir les cartes d'approche


LFBZ - Biarritz

DERNIER METAR :
  • 230130Z AUTO 27002KT 6000 NSC 14/14 Q1019 TEMPO 2500 BR BECMG BKN010

METARs EXPIRÉS :
  • 230100Z AUTO VRB02KT 5000 BR ///TCU 14/14 Q1019 TEMPO 2500 BR NSC
  • 230030Z AUTO VRB01KT 4100 BR FEW002 OVC090 14/14 Q1019 TEMPO 2500 BR BECMG BKN010
  • 230000Z AUTO VRB01KT 4100 BR FEW003 BKN098 OVC120 15/14 Q1019 TEMPO BKN005 BECMG 5000 BR
  • 222330Z AUTO 16002KT 5000 BR NSC 15/14 Q1019 TEMPO BKN005
  • 222300Z AUTO 25002KT 7000 SCT008 BKN013 BKN110 15/14 Q1019 TEMPO 4000 SHRA FEW060CB BKN080TCU

TAF AMD TAF LFBZ
Valide du 23 à 01h jusqu'au 24 à 00h UTC


230130Z 2301/2324 VRB02KT 7000 NSC
PROB40
TEMPO 2301/2309 4000 BR BKN005
BECMG 2309/2311 34010KT 9999 BKN025
BECMG 2318/2321 24005KT BKN007
Pas de NOTAMs connus pour ce terrain.



MET'MAP, la Météo Aéronautique d'un coup d'oeil ! - Copyright ORBIFLY Décembre 2007 - Disclaimer

ORBIFLY MET'MAP TEAM :

Programmation & Développement : Alexandra Zaïnal
Conception & Développement : Baudouin d'Aumeries
Co-Programmation & Développement : Marc-Olivier Méhu
Soutien technique & logistique : Manuel Goepfert

Contact : metmap@orbifly.com




SOURCES & CREDITS :

   NOAA